Time;durP1;ratioP1;P1;durP2;ratioP2;P2;SDS_P1;SDS_P2;PMS_P1;PMS_P2;Temp;Humidity;BMP_temperature;BMP_pressure;BME280_temperature;BME280_humidity;BME280_pressure;Samples;Min_cycle;Max_cycle;Signal;HPM_P1;HPM_P2
2021/04/22 00:00:39;;;;;;;24.00;4.10;;;6.80;99.90;;;;;;5111408;28;20174;-84
2021/04/22 00:03:05;;;;;;;15.37;3.33;;;6.70;99.90;;;;;;5097574;27;20225;-84
2021/04/22 00:05:37;;;;;;;26.10;3.77;;;6.70;99.90;;;;;;5073942;28;20633;-83
2021/04/22 00:08:07;;;;;;;18.17;2.73;;;6.60;99.90;;;;;;5073745;28;20179;-83
2021/04/22 00:10:50;;;;;;;9.77;2.63;;;6.50;99.90;;;;;;5074921;28;20191;-84
2021/04/22 00:13:18;;;;;;;24.20;4.07;;;6.60;99.90;;;;;;5074734;28;20216;-84
2021/04/22 00:15:44;;;;;;;17.50;3.53;;;6.50;99.90;;;;;;5074336;28;20175;-84
2021/04/22 00:18:10;;;;;;;24.13;4.03;;;6.50;99.90;;;;;;5073232;28;20214;-84
2021/04/22 00:20:36;;;;;;;17.30;3.20;;;6.40;99.90;;;;;;5074044;28;20174;-84
2021/04/22 00:23:09;;;;;;;26.53;4.00;;;6.40;99.90;;;;;;5074894;28;20193;-85
2021/04/22 00:25:36;;;;;;;27.47;2.90;;;6.40;99.90;;;;;;5074480;28;20570;-85
2021/04/22 00:28:05;;;;;;;15.13;2.70;;;6.40;99.90;;;;;;5074428;28;20178;-85
2021/04/22 00:30:32;;;;;;;18.57;3.43;;;6.40;99.90;;;;;;5073507;28;20171;-85
2021/04/22 00:32:58;;;;;;;8.93;2.80;;;6.40;99.90;;;;;;5073236;28;20269;-84
2021/04/22 00:35:24;;;;;;;20.13;3.40;;;6.30;99.90;;;;;;5073150;28;20209;-84
2021/04/22 00:37:50;;;;;;;19.33;3.23;;;6.30;99.90;;;;;;5073032;28;20203;-85
2021/04/22 00:40:22;;;;;;;20.77;3.80;;;6.30;99.90;;;;;;5073517;28;20224;-83
2021/04/22 00:42:48;;;;;;;28.37;4.07;;;6.30;99.90;;;;;;5073112;28;20690;-85
2021/04/22 00:45:15;;;;;;;22.17;3.20;;;6.20;99.90;;;;;;5074421;28;20205;-85
2021/04/22 00:47:41;;;;;;;23.77;4.00;;;6.20;99.90;;;;;;5074029;28;20651;-86
2021/04/22 00:50:31;;;;;;;14.50;2.50;;;6.10;99.90;;;;;;5052577;28;20179;-75
2021/04/22 00:52:59;;;;;;;17.30;3.20;;;6.10;99.90;;;;;;5068906;28;20300;-75
2021/04/22 00:55:26;;;;;;;19.70;3.80;;;6.10;99.90;;;;;;5055321;28;20171;-76
2021/04/22 00:57:51;;;;;;;21.83;3.27;;;6.10;99.90;;;;;;5072064;28;20225;-76
2021/04/22 01:00:21;;;;;;;12.33;2.90;;;6.10;99.90;;;;;;5072073;28;20225;-76
2021/04/22 01:02:47;;;;;;;32.43;3.67;;;6.20;99.90;;;;;;5071990;28;20644;-76
2021/04/22 01:05:26;;;;;;;26.47;4.23;;;6.10;99.90;;;;;;5071993;28;20251;-76
2021/04/22 01:07:51;;;;;;;18.33;3.27;;;6.10;99.90;;;;;;5073473;28;20647;-75
2021/04/22 01:10:19;;;;;;;26.80;4.70;;;6.10;99.90;;;;;;5073389;28;20185;-76
2021/04/22 01:12:44;;;;;;;22.13;3.53;;;6.10;99.90;;;;;;5072987;28;20179;-76
2021/04/22 01:15:17;;;;;;;14.80;3.07;;;6.20;99.90;;;;;;5071929;28;20177;-76
2021/04/22 01:17:43;;;;;;;19.20;2.80;;;6.10;99.90;;;;;;5072866;28;20726;-76
2021/04/22 01:20:11;;;;;;;20.23;4.20;;;6.10;99.90;;;;;;5073387;28;20224;-76
2021/04/22 01:22:37;;;;;;;22.50;3.43;;;6.00;99.90;;;;;;5071156;28;20163;-76
2021/04/22 01:25:06;;;;;;;20.93;3.80;;;5.90;99.90;;;;;;5073177;28;20181;-76
2021/04/22 01:27:32;;;;;;;16.53;2.90;;;5.90;99.90;;;;;;5072606;28;20520;-76
2021/04/22 01:29:58;;;;;;;21.83;3.17;;;5.90;99.90;;;;;;5073124;28;20169;-76
2021/04/22 01:32:23;;;;;;;23.93;3.50;;;5.90;99.90;;;;;;5071884;28;20182;-76
2021/04/22 01:34:49;;;;;;;24.53;3.40;;;5.90;99.90;;;;;;5071825;28;20647;-76
2021/04/22 01:37:15;;;;;;;28.17;4.17;;;5.80;99.90;;;;;;5072705;28;20210;-75
2021/04/22 01:39:41;;;;;;;26.90;3.23;;;5.80;99.90;;;;;;5073049;28;20182;-76
2021/04/22 01:42:07;;;;;;;23.53;3.70;;;5.70;99.90;;;;;;5072912;28;20224;-75
2021/04/22 01:44:32;;;;;;;24.73;3.77;;;5.80;99.90;;;;;;5073039;28;20167;-75
2021/04/22 01:46:58;;;;;;;22.07;3.00;;;5.80;99.90;;;;;;5072816;28;20266;-75
2021/04/22 01:49:24;;;;;;;29.60;3.23;;;5.70;99.90;;;;;;5072486;28;20562;-76
2021/04/22 01:51:49;;;;;;;25.10;3.97;;;5.60;99.90;;;;;;5071648;28;20631;-75
2021/04/22 01:54:15;;;;;;;25.33;3.70;;;5.60;99.90;;;;;;5071576;28;20186;-76
2021/04/22 01:56:41;;;;;;;26.67;3.67;;;5.60;99.90;;;;;;5071430;28;20182;-76
2021/04/22 01:59:06;;;;;;;23.30;2.97;;;5.60;99.90;;;;;;5071552;28;20798;-75
2021/04/22 02:01:32;;;;;;;23.47;3.97;;;5.60;99.90;;;;;;5054787;28;20651;-76
2021/04/22 02:03:57;;;;;;;31.70;5.43;;;5.60;99.90;;;;;;5071358;28;20194;-75
2021/04/22 02:06:23;;;;;;;27.20;3.60;;;5.60;99.90;;;;;;5072639;28;20181;-75
2021/04/22 02:08:48;;;;;;;17.07;3.47;;;5.60;99.90;;;;;;5071860;28;20228;-76
2021/04/22 02:11:14;;;;;;;17.10;3.70;;;5.50;99.90;;;;;;5059621;28;20682;-76
2021/04/22 02:13:40;;;;;;;31.13;4.00;;;5.40;99.90;;;;;;5071125;28;20179;-75
2021/04/22 02:16:06;;;;;;;22.37;3.80;;;5.40;99.90;;;;;;5072720;28;20530;-75
2021/04/22 02:18:31;;;;;;;23.80;3.33;;;5.40;99.90;;;;;;5075381;28;20175;-76
2021/04/22 02:20:57;;;;;;;17.97;2.90;;;5.40;99.90;;;;;;5076275;28;20253;-75
2021/04/22 02:23:24;;;;;;;21.67;2.90;;;5.30;99.90;;;;;;5074929;28;20205;-75
2021/04/22 02:25:50;;;;;;;23.87;3.83;;;5.40;99.90;;;;;;5076269;28;20559;-76
2021/04/22 02:28:17;;;;;;;18.33;3.70;;;5.40;99.90;;;;;;5076037;28;20194;-76
2021/04/22 02:30:44;;;;;;;20.90;3.53;;;5.40;99.90;;;;;;5076338;28;20190;-76
2021/04/22 02:33:13;;;;;;;18.50;3.37;;;5.30;99.90;;;;;;5075767;28;20175;-75
2021/04/22 02:35:42;;;;;;;24.37;4.33;;;5.20;99.90;;;;;;5076105;28;20170;-76
2021/04/22 02:38:10;;;;;;;16.10;3.93;;;5.30;99.90;;;;;;5075854;28;20836;-75
2021/04/22 02:40:37;;;;;;;26.53;4.27;;;5.30;99.90;;;;;;5074654;28;20228;-76
2021/04/22 02:43:07;;;;;;;20.93;3.83;;;5.40;99.90;;;;;;5091569;28;20187;-75
2021/04/22 02:45:41;;;;;;;35.67;4.83;;;5.40;99.90;;;;;;5074606;28;20233;-76
2021/04/22 02:48:08;;;;;;;17.17;3.80;;;5.30;99.90;;;;;;5075824;28;20193;-75
2021/04/22 02:50:37;;;;;;;18.27;3.90;;;5.20;99.90;;;;;;5076150;28;20171;-75
2021/04/22 02:53:05;;;;;;;26.60;5.50;;;5.20;99.90;;;;;;5076019;28;20178;-76
2021/04/22 02:55:31;;;;;;;21.90;3.33;;;5.40;99.90;;;;;;5075884;28;20265;-76
2021/04/22 02:57:57;;;;;;;18.93;3.43;;;5.40;99.90;;;;;;5075204;28;20590;-76
2021/04/22 03:00:24;;;;;;;21.00;4.27;;;5.30;99.90;;;;;;5074373;28;20262;-75
2021/04/22 03:02:50;;;;;;;25.17;4.30;;;5.20;99.90;;;;;;5075530;28;20244;-76
2021/04/22 03:05:17;;;;;;;8.73;3.17;;;5.20;99.90;;;;;;5074315;28;20545;-76
2021/04/22 03:07:43;;;;;;;28.30;3.77;;;5.20;99.90;;;;;;5075361;28;20191;-75
2021/04/22 03:10:12;;;;;;;26.50;3.67;;;5.20;99.90;;;;;;5075526;28;20536;-76
2021/04/22 03:12:37;;;;;;;17.70;3.20;;;5.20;99.90;;;;;;5075138;28;20175;-76
2021/04/22 03:15:05;;;;;;;16.60;3.30;;;5.20;99.90;;;;;;5057386;28;20200;-76
2021/04/22 03:17:30;;;;;;;32.47;4.30;;;5.30;99.90;;;;;;5073517;28;20626;-76
2021/04/22 03:19:56;;;;;;;18.00;3.90;;;5.30;99.90;;;;;;5075024;28;20193;-75
2021/04/22 03:22:22;;;;;;;17.57;3.57;;;5.20;99.90;;;;;;5075135;28;20253;-76
2021/04/22 03:24:48;;;;;;;22.70;4.40;;;5.20;99.90;;;;;;5074075;28;20175;-75
2021/04/22 03:27:13;;;;;;;19.70;4.77;;;5.20;99.90;;;;;;5073806;28;20290;-76
2021/04/22 03:29:39;;;;;;;30.13;4.50;;;5.20;99.90;;;;;;5073380;28;20183;-76
2021/04/22 03:32:05;;;;;;;20.93;3.73;;;5.20;99.90;;;;;;5075129;28;20177;-76
2021/04/22 03:34:30;;;;;;;23.67;3.53;;;5.20;99.90;;;;;;5073846;28;20166;-76
2021/04/22 03:36:56;;;;;;;20.23;3.87;;;5.30;99.90;;;;;;5074649;28;20174;-76
2021/04/22 03:39:22;;;;;;;29.80;4.67;;;5.30;99.90;;;;;;5073651;28;20163;-75
2021/04/22 03:41:48;;;;;;;21.07;3.60;;;5.20;99.90;;;;;;5073566;28;20183;-76
2021/04/22 03:44:13;;;;;;;25.77;4.37;;;5.00;99.90;;;;;;5052801;28;20182;-75
2021/04/22 03:46:39;;;;;;;24.60;3.93;;;5.00;99.90;;;;;;5063423;28;20181;-76
2021/04/22 03:49:05;;;;;;;22.57;3.90;;;5.00;99.90;;;;;;5074454;28;20271;-76
2021/04/22 03:51:31;;;;;;;15.93;4.47;;;4.90;99.90;;;;;;5074939;28;20170;-76
2021/04/22 03:53:57;;;;;;;27.53;4.20;;;5.00;99.90;;;;;;5074606;28;20170;-75
2021/04/22 03:56:23;;;;;;;19.73;3.97;;;5.00;99.90;;;;;;5074240;28;20210;-75
2021/04/22 03:58:48;;;;;;;16.67;3.60;;;5.00;99.90;;;;;;5074457;28;20616;-76
2021/04/22 04:01:14;;;;;;;20.73;4.47;;;5.00;99.90;;;;;;5056456;28;20646;-76
2021/04/22 04:03:40;;;;;;;22.43;3.87;;;5.10;99.90;;;;;;5074461;28;20662;-76
2021/04/22 04:06:06;;;;;;;25.70;3.90;;;5.20;99.90;;;;;;5053133;28;20180;-76
2021/04/22 04:08:31;;;;;;;25.40;4.53;;;5.30;99.90;;;;;;5059909;28;20199;-76
2021/04/22 04:10:57;;;;;;;24.93;3.57;;;5.40;99.90;;;;;;5074571;28;20181;-76
2021/04/22 04:13:22;;;;;;;21.13;4.03;;;5.40;99.90;;;;;;5073968;28;20171;-76
2021/04/22 04:15:49;;;;;;;21.40;4.07;;;5.40;99.90;;;;;;5073761;28;21750;-76
2021/04/22 04:18:18;;;;;;;19.10;3.83;;;5.20;99.90;;;;;;5056462;28;20178;-76
2021/04/22 04:20:44;;;;;;;22.27;4.00;;;5.10;99.90;;;;;;5072903;28;20171;-76
2021/04/22 04:23:10;;;;;;;27.83;3.90;;;5.00;99.90;;;;;;5074125;28;20171;-76
2021/04/22 04:25:36;;;;;;;20.50;3.80;;;5.00;99.90;;;;;;5072430;28;20175;-75
2021/04/22 04:28:02;;;;;;;29.57;4.63;;;5.10;99.90;;;;;;5072403;28;20209;-76
2021/04/22 04:30:27;;;;;;;27.77;4.93;;;5.10;99.90;;;;;;5072603;28;20175;-76
2021/04/22 04:32:53;;;;;;;23.53;4.50;;;5.10;99.90;;;;;;5073929;28;20182;-76
2021/04/22 04:35:19;;;;;;;23.30;3.90;;;5.10;99.90;;;;;;5035831;28;20258;-75
2021/04/22 04:37:44;;;;;;;23.23;4.57;;;5.20;99.90;;;;;;5070934;28;20183;-76
2021/04/22 04:40:12;;;;;;;22.87;4.40;;;5.30;99.90;;;;;;5073069;28;20193;-76
2021/04/22 04:42:39;;;;;;;19.37;4.60;;;5.30;99.90;;;;;;5073803;28;20261;-76
2021/04/22 04:45:06;;;;;;;30.73;5.17;;;5.40;99.90;;;;;;5072681;28;20175;-76
2021/04/22 04:47:32;;;;;;;20.33;4.83;;;5.50;99.90;;;;;;5073595;28;20532;-76
2021/04/22 04:49:58;;;;;;;15.47;4.30;;;5.50;99.90;;;;;;5072440;28;20178;-76
2021/04/22 04:52:24;;;;;;;23.30;4.30;;;5.60;99.90;;;;;;5073551;28;20175;-76
2021/04/22 04:54:49;;;;;;;31.13;6.00;;;5.60;99.90;;;;;;5073332;28;20162;-76
2021/04/22 04:57:15;;;;;;;23.03;5.00;;;5.60;99.90;;;;;;5055286;28;20235;-76
2021/04/22 04:59:40;;;;;;;27.37;5.37;;;5.60;99.90;;;;;;5072509;28;20301;-76
2021/04/22 05:02:06;;;;;;;18.23;4.47;;;5.60;99.90;;;;;;5073407;28;20191;-76
2021/04/22 05:04:32;;;;;;;25.10;4.90;;;5.40;99.90;;;;;;5071932;28;20175;-76
2021/04/22 05:06:58;;;;;;;32.97;5.37;;;5.50;99.90;;;;;;5073210;28;20170;-76
2021/04/22 05:09:23;;;;;;;36.37;5.53;;;5.60;99.90;;;;;;5072910;28;20210;-76
2021/04/22 05:11:49;;;;;;;26.03;5.90;;;5.60;99.90;;;;;;5072031;28;20175;-75
2021/04/22 05:14:15;;;;;;;32.40;4.83;;;5.50;99.90;;;;;;5073567;28;20174;-75
2021/04/22 05:16:40;;;;;;;24.03;4.97;;;5.40;99.90;;;;;;5073574;28;20174;-76
2021/04/22 05:19:06;;;;;;;18.93;4.77;;;5.40;99.90;;;;;;5072287;28;20167;-76
2021/04/22 05:21:32;;;;;;;29.27;5.70;;;5.30;99.90;;;;;;5073201;28;20174;-75
2021/04/22 05:23:57;;;;;;;25.73;4.90;;;5.40;99.90;;;;;;5071560;28;20174;-76
2021/04/22 05:26:23;;;;;;;19.70;4.80;;;5.50;99.90;;;;;;5072879;28;20178;-76
2021/04/22 05:28:51;;;;;;;18.13;4.27;;;5.70;99.90;;;;;;5072002;28;20202;-76
2021/04/22 05:31:17;;;;;;;18.10;4.37;;;6.00;99.90;;;;;;5055618;28;20179;-76
2021/04/22 05:33:43;;;;;;;24.63;4.70;;;6.20;99.90;;;;;;5073245;28;20178;-76
2021/04/22 05:36:08;;;;;;;21.97;5.23;;;6.20;99.90;;;;;;5072447;28;20174;-76
2021/04/22 05:38:34;;;;;;;27.50;5.97;;;6.10;99.90;;;;;;5073111;28;20170;-76
2021/04/22 05:41:00;;;;;;;22.77;5.30;;;5.90;99.90;;;;;;5072073;28;20619;-76
2021/04/22 05:43:26;;;;;;;26.23;5.60;;;5.80;99.90;;;;;;5073295;28;20167;-76
2021/04/22 05:45:52;;;;;;;29.00;5.80;;;5.90;99.90;;;;;;5071704;28;20190;-76
2021/04/22 05:48:18;;;;;;;37.33;5.37;;;6.10;99.90;;;;;;5073127;28;20682;-75
2021/04/22 05:50:44;;;;;;;30.03;5.67;;;6.40;99.90;;;;;;5071557;28;20554;-76
2021/04/22 05:53:09;;;;;;;34.67;6.17;;;6.60;99.90;;;;;;5075515;28;20682;-75
2021/04/22 05:55:35;;;;;;;30.83;5.87;;;6.50;99.90;;;;;;5076811;28;20653;-76
2021/04/22 05:58:01;;;;;;;26.37;5.30;;;6.40;99.90;;;;;;5059123;28;20209;-76
2021/04/22 06:00:30;;;;;;;32.33;6.47;;;6.40;99.90;;;;;;5076916;28;20167;-79
2021/04/22 06:02:58;;;;;;;19.47;5.60;;;6.50;99.90;;;;;;5076881;28;20638;-77
2021/04/22 06:05:25;;;;;;;24.55;5.38;;;6.80;99.90;;;;;;5076127;28;20167;-76
2021/04/22 06:07:50;;;;;;;25.27;5.53;;;6.70;99.90;;;;;;5074976;28;20679;-75
2021/04/22 06:10:17;;;;;;;17.90;4.82;;;6.90;99.90;;;;;;5076574;28;20175;-75
2021/04/22 06:12:42;;;;;;;34.80;6.00;;;6.90;99.90;;;;;;5075431;28;20200;-76
2021/04/22 06:15:09;;;;;;;34.65;6.35;;;7.00;99.90;;;;;;5075058;28;20171;-76
2021/04/22 06:17:35;;;;;;;15.02;5.05;;;7.10;99.90;;;;;;5075082;28;20174;-76
2021/04/22 06:20:02;;;;;;;24.48;5.28;;;7.30;99.90;;;;;;5076104;28;20179;-76
2021/04/22 06:22:27;;;;;;;22.20;5.70;;;7.50;99.90;;;;;;5076292;28;20532;-76
2021/04/22 06:24:53;;;;;;;21.90;5.57;;;7.50;99.90;;;;;;5075648;28;20175;-76
2021/04/22 06:27:19;;;;;;;30.50;5.35;;;7.70;99.90;;;;;;5076074;28;20206;-76
2021/04/22 06:29:44;;;;;;;23.02;5.38;;;7.60;99.90;;;;;;5076367;28;20178;-77
2021/04/22 06:32:11;;;;;;;24.73;5.75;;;7.70;99.90;;;;;;5058065;28;20178;-75
2021/04/22 06:34:36;;;;;;;16.83;5.18;;;7.80;99.90;;;;;;5076008;28;20189;-75
2021/04/22 06:37:02;;;;;;;23.15;5.35;;;8.00;99.90;;;;;;5075990;28;20171;-75
2021/04/22 06:39:29;;;;;;;29.38;6.00;;;8.20;99.90;;;;;;5076155;28;20677;-75
2021/04/22 06:41:55;;;;;;;22.60;5.63;;;8.20;99.90;;;;;;5075900;28;20544;-75
2021/04/22 06:44:20;;;;;;;33.80;5.63;;;9.20;99.90;;;;;;5074977;28;20175;-76
2021/04/22 06:46:46;;;;;;;31.73;5.28;;;10.20;99.90;;;;;;5075162;28;20410;-76
2021/04/22 06:49:12;;;;;;;14.88;4.55;;;11.20;99.90;;;;;;5074516;28;20308;-76
2021/04/22 06:51:37;;;;;;;20.30;4.78;;;11.90;99.90;;;;;;5074474;28;20167;-76
2021/04/22 06:54:04;;;;;;;18.42;4.50;;;12.60;99.90;;;;;;5075890;28;20169;-77
2021/04/22 06:56:30;;;;;;;20.45;5.20;;;14.00;99.90;;;;;;5075757;28;20163;-77
2021/04/22 06:58:58;;;;;;;15.48;5.25;;;14.20;99.90;;;;;;5076169;28;20519;-76
2021/04/22 07:01:24;;;;;;;21.48;4.40;;;13.80;99.90;;;;;;5074587;28;20543;-77
2021/04/22 07:03:49;;;;;;;16.88;4.30;;;13.90;99.90;;;;;;5073614;28;20198;-77
2021/04/22 07:06:15;;;;;;;17.15;3.90;;;13.20;99.90;;;;;;5057026;28;20183;-76
2021/04/22 07:08:42;;;;;;;25.08;4.93;;;14.40;99.90;;;;;;5075678;28;20277;-76
2021/04/22 07:11:07;;;;;;;17.42;4.70;;;16.70;97.80;;;;;;5074494;28;20174;-78
2021/04/22 07:13:33;;;;;;;25.38;3.83;;;16.60;95.50;;;;;;5074051;28;20181;-76
2021/04/22 07:15:59;;;;;;;14.27;3.80;;;15.60;94.80;;;;;;5073826;28;20182;-76
2021/04/22 07:18:24;;;;;;;13.35;4.13;;;15.10;96.60;;;;;;5075240;28;20531;-77
2021/04/22 07:20:50;;;;;;;14.88;4.22;;;14.30;96.20;;;;;;5074267;28;20181;-76
2021/04/22 07:23:16;;;;;;;13.27;4.32;;;15.30;95.20;;;;;;5075472;28;20498;-76
2021/04/22 07:25:42;;;;;;;17.23;4.55;;;14.80;95.30;;;;;;5074055;28;20623;-76
2021/04/22 07:28:09;;;;;;;12.13;3.80;;;15.70;95.70;;;;;;5073872;28;20565;-77
2021/04/22 07:30:38;;;;;;;12.45;4.15;;;14.90;94.70;;;;;;5075275;28;20229;-76
2021/04/22 07:33:06;;;;;;;24.30;4.20;;;14.20;95.90;;;;;;5074957;28;20671;-77
2021/04/22 07:35:32;;;;;;;17.23;4.55;;;13.60;97.30;;;;;;5074384;28;20171;-76
2021/04/22 07:37:57;;;;;;;17.40;4.40;;;15.10;96.40;;;;;;5075018;28;20208;-76
2021/04/22 07:40:26;;;;;;;17.20;4.20;;;14.80;94.80;;;;;;5073597;28;20171;-76
2021/04/22 07:42:52;;;;;;;15.23;3.80;;;14.90;94.80;;;;;;5073636;28;20174;-76
2021/04/22 07:45:22;;;;;;;15.20;4.45;;;14.80;95.10;;;;;;5073462;28;20182;-75
2021/04/22 07:47:47;;;;;;;17.48;3.70;;;15.40;95.10;;;;;;5073331;28;20554;-76
2021/04/22 07:50:14;;;;;;;14.20;3.03;;;15.10;94.00;;;;;;5073357;28;20175;-76
2021/04/22 07:52:43;;;;;;;9.68;3.65;;;14.00;95.40;;;;;;5073345;28;20163;-76
2021/04/22 07:55:11;;;;;;;13.43;3.40;;;14.10;95.90;;;;;;5072882;28;20167;-75
2021/04/22 07:57:38;;;;;;;12.00;3.55;;;13.80;95.30;;;;;;5074728;28;20225;-76
2021/04/22 08:00:06;;;;;;;19.63;3.90;;;15.50;95.00;;;;;;5072267;28;20171;-76
2021/04/22 08:02:32;;;;;;;11.23;3.17;;;15.70;94.20;;;;;;5072809;28;20526;-75
2021/04/22 08:04:58;;;;;;;16.13;4.22;;;17.70;93.30;;;;;;5072759;28;20233;-76
2021/04/22 08:07:24;;;;;;;14.82;3.40;;;18.60;91.50;;;;;;5074200;28;20190;-76
2021/04/22 08:09:49;;;;;;;13.65;3.63;;;19.30;88.70;;;;;;5072843;28;20198;-77
2021/04/22 08:12:15;;;;;;;17.73;3.72;;;20.10;90.40;;;;;;5074309;28;20242;-76
2021/04/22 08:14:40;;;;;;;11.52;3.65;;;20.70;82.10;;;;;;5072816;28;20254;-76
2021/04/22 08:17:06;;;;;;;16.90;3.92;;;20.80;82.80;;;;;;5073806;28;20190;-77
2021/04/22 08:19:34;;;;;;;8.75;3.28;;;21.80;80.50;;;;;;5074259;28;20174;-76
2021/04/22 08:22:01;;;;;;;13.20;3.58;;;21.00;78.20;;;;;;5073907;28;20171;-76
2021/04/22 08:24:27;;;;;;;17.75;3.97;;;19.40;80.50;;;;;;5073075;28;20676;-77
2021/04/22 08:26:53;;;;;;;18.73;3.85;;;19.90;81.40;;;;;;5069520;28;20639;-76
2021/04/22 08:29:19;;;;;;;14.20;4.18;;;19.10;82.70;;;;;;5071330;28;20170;-76
2021/04/22 08:31:45;;;;;;;13.95;3.53;;;20.80;84.00;;;;;;5052429;28;20180;-76
2021/04/22 08:34:10;;;;;;;10.73;3.42;;;23.30;78.10;;;;;;5053334;28;20172;-77
2021/04/22 08:36:36;;;;;;;13.95;3.42;;;21.80;77.40;;;;;;5073724;28;20178;-76
2021/04/22 08:39:07;;;;;;;10.88;3.58;;;20.40;77.00;;;;;;5073706;28;20182;-76
2021/04/22 08:41:33;;;;;;;15.43;3.92;;;18.10;82.30;;;;;;5059044;28;21093;-76
2021/04/22 08:44:02;;;;;;;15.80;4.00;;;17.70;83.80;;;;;;5079306;28;20571;-77
2021/04/22 08:46:29;;;;;;;16.70;3.78;;;18.40;83.50;;;;;;5057173;28;20186;-77
2021/04/22 08:48:55;;;;;;;17.00;3.58;;;18.80;83.80;;;;;;5068936;28;20612;-76
2021/04/22 08:51:21;;;;;;;17.48;3.70;;;19.60;81.70;;;;;;5065140;28;20217;-77
2021/04/22 08:53:48;;;;;;;20.63;4.03;;;20.70;78.30;;;;;;5062317;28;20752;-77
2021/04/22 08:56:15;;;;;;;17.13;3.10;;;20.60;78.20;;;;;;5053595;28;20179;-77
2021/04/22 08:58:42;;;;;;;9.10;3.00;;;22.50;77.10;;;;;;5061394;28;20240;-77
2021/04/22 09:01:18;;;;;;;13.27;3.45;;;22.40;71.60;;;;;;5055480;28;20185;-77
2021/04/22 09:03:47;;;;;;;10.05;3.42;;;21.90;75.00;;;;;;5053182;28;20685;-76
2021/04/22 09:06:13;;;;;;;13.35;4.00;;;20.60;75.70;;;;;;5065077;28;20220;-76
2021/04/22 09:08:44;;;;;;;6.10;2.95;;;20.60;76.50;;;;;;5069620;28;20213;-76
2021/04/22 09:11:11;;;;;;;15.80;3.40;;;21.70;73.60;;;;;;5052024;28;20179;-76
2021/04/22 09:13:37;;;;;;;11.40;3.50;;;21.40;73.70;;;;;;5069929;28;20174;-76
2021/04/22 09:16:12;;;;;;;14.00;4.07;;;19.60;78.20;;;;;;5064307;28;20181;-77
2021/04/22 09:18:47;;;;;;;17.40;4.22;;;19.10;80.10;;;;;;5073295;28;20178;-76
2021/04/22 09:21:18;;;;;;;20.90;4.22;;;19.70;77.20;;;;;;5070340;28;20217;-76
2021/04/22 09:24:01;;;;;;;13.48;3.45;;;20.90;76.60;;;;;;5071975;28;20254;-76
2021/04/22 09:26:52;;;;;;;25.08;4.25;;;21.90;74.40;;;;;;5057228;28;20167;-75
2021/04/22 09:29:48;;;;;;;8.70;3.20;;;19.40;77.30;;;;;;5054775;28;20198;-77
2021/04/22 09:32:24;;;;;;;8.93;3.00;;;20.30;75.60;;;;;;5059061;28;20195;-76
2021/04/22 09:34:52;;;;;;;7.63;3.17;;;21.40;73.80;;;;;;5054584;28;20261;-76
2021/04/22 09:37:23;;;;;;;12.30;3.30;;;22.30;74.50;;;;;;5070753;28;20179;-77
2021/04/22 09:39:50;;;;;;;20.95;4.10;;;23.90;72.10;;;;;;5072391;28;20245;-77
2021/04/22 09:42:18;;;;;;;12.68;3.97;;;25.30;70.50;;;;;;5054714;28;20540;-78
2021/04/22 09:44:47;;;;;;;15.18;3.53;;;26.80;67.30;;;;;;5066997;28;20178;-76
2021/04/22 09:47:24;;;;;;;16.52;3.67;;;27.90;62.00;;;;;;5072337;28;20174;-76
2021/04/22 09:49:56;;;;;;;16.70;4.05;;;24.50;66.70;;;;;;5071755;28;20220;-75
2021/04/22 09:52:22;;;;;;;11.05;3.58;;;24.20;67.90;;;;;;5071365;28;20179;-76
2021/04/22 09:54:50;;;;;;;13.70;3.13;;;24.30;66.60;;;;;;5065328;28;20172;-76
2021/04/22 09:57:25;;;;;;;11.13;3.78;;;25.00;67.90;;;;;;5056615;28;20175;-76
2021/04/22 09:59:52;;;;;;;15.77;3.90;;;23.40;65.90;;;;;;5071754;28;20181;-76
2021/04/22 10:02:19;;;;;;;10.68;3.65;;;24.50;66.00;;;;;;5042146;28;20195;-80
2021/04/22 10:04:47;;;;;;;14.95;4.05;;;24.40;64.80;;;;;;5070600;28;20663;-79
2021/04/22 10:07:26;;;;;;;11.23;3.80;;;22.10;67.30;;;;;;5070612;28;20179;-75
2021/04/22 10:09:57;;;;;;;20.60;4.35;;;19.70;72.90;;;;;;5070677;28;20201;-76
2021/04/22 10:12:34;;;;;;;15.48;3.58;;;20.60;73.20;;;;;;5070315;28;20343;-76
2021/04/22 10:15:17;;;;;;;10.85;4.03;;;21.90;71.70;;;;;;5072618;28;20737;-76
2021/04/22 10:18:00;;;;;;;18.77;4.45;;;22.20;70.10;;;;;;5068054;28;20205;-77
2021/04/22 10:20:28;;;;;;;13.90;3.63;;;22.30;69.40;;;;;;5070576;28;20274;-78
2021/04/22 10:22:54;;;;;;;11.13;3.60;;;24.30;67.00;;;;;;5070888;28;20258;-77
2021/04/22 10:25:23;;;;;;;22.50;3.70;;;23.60;67.70;;;;;;5072420;28;20167;-76
2021/04/22 10:27:49;;;;;;;20.90;4.18;;;24.30;66.50;;;;;;5064833;28;20264;-76
2021/04/22 10:30:23;;;;;;;11.35;3.90;;;24.50;65.50;;;;;;5069898;28;20655;-76
2021/04/22 10:32:50;;;;;;;15.77;3.65;;;26.20;64.00;;;;;;5070527;28;20178;-78
2021/04/22 10:35:21;;;;;;;13.65;3.75;;;26.20;61.50;;;;;;5065318;28;20176;-78
2021/04/22 10:37:50;;;;;;;17.27;3.63;;;24.00;63.10;;;;;;5059703;28;20178;-76
2021/04/22 10:40:18;;;;;;;12.43;3.47;;;24.00;65.90;;;;;;5073557;28;20178;-77
2021/04/22 10:42:44;;;;;;;18.13;4.15;;;25.10;61.00;;;;;;5075201;28;20257;-77
2021/04/22 10:45:14;;;;;;;12.35;4.00;;;26.50;61.60;;;;;;5072788;28;20171;-79
2021/04/22 10:47:40;;;;;;;12.60;3.90;;;25.20;61.60;;;;;;5070024;28;20202;-80
2021/04/22 10:50:19;;;;;;;14.75;3.88;;;24.60;64.60;;;;;;5075357;28;20258;-76
2021/04/22 10:52:47;;;;;;;13.35;4.55;;;24.60;63.30;;;;;;5072855;28;20171;-79
2021/04/22 10:55:15;;;;;;;16.95;4.10;;;27.40;61.00;;;;;;5057720;28;20232;-77
2021/04/22 10:57:40;;;;;;;13.60;4.18;;;25.80;60.10;;;;;;5070402;28;20186;-78
2021/04/22 11:00:09;;;;;;;14.45;4.20;;;25.50;63.40;;;;;;5063757;28;20178;-75
2021/04/22 11:02:52;;;;;;;20.52;4.63;;;24.90;63.60;;;;;;5071503;28;20562;-76
2021/04/22 11:05:26;;;;;;;13.10;3.35;;;23.80;65.00;;;;;;5074740;28;20646;-75
2021/04/22 11:08:01;;;;;;;13.93;4.32;;;25.00;65.70;;;;;;5074023;28;20190;-76
2021/04/22 11:10:39;;;;;;;14.93;3.47;;;27.10;63.20;;;;;;5073361;28;20170;-76
2021/04/22 11:13:13;;;;;;;17.67;3.92;;;28.10;59.30;;;;;;5074250;28;20527;-76
2021/04/22 11:15:43;;;;;;;16.33;3.90;;;26.50;60.50;;;;;;5071940;28;20178;-76
2021/04/22 11:18:11;;;;;;;11.13;3.55;;;28.00;58.10;;;;;;5071106;28;20231;-76
2021/04/22 11:20:40;;;;;;;11.07;4.18;;;28.50;58.20;;;;;;5071990;28;20167;-76
2021/04/22 11:23:19;;;;;;;12.48;3.95;;;27.10;58.40;;;;;;5086670;28;20179;-76
2021/04/22 11:25:56;;;;;;;16.20;5.05;;;27.90;59.10;;;;;;5092363;28;20186;-77
2021/04/22 11:28:29;;;;;;;10.82;3.50;;;26.60;57.90;;;;;;5094669;28;20194;-76
2021/04/22 11:31:06;;;;;;;16.00;4.05;;;25.10;61.90;;;;;;5082651;28;20190;-75
2021/04/22 11:33:32;;;;;;;12.30;3.65;;;25.00;61.70;;;;;;5075340;28;20186;-76
2021/04/22 11:36:08;;;;;;;9.00;4.05;;;24.70;64.40;;;;;;5077721;28;20684;-77
2021/04/22 11:38:34;;;;;;;13.15;4.53;;;25.60;62.70;;;;;;5064969;28;20190;-76
2021/04/22 11:41:06;;;;;;;24.48;4.00;;;25.40;61.40;;;;;;5063211;28;20174;-76
2021/04/22 11:43:31;;;;;;;23.05;3.92;;;21.90;67.00;;;;;;5074643;28;20178;-76
2021/04/22 11:45:59;;;;;;;12.68;4.25;;;23.20;65.00;;;;;;5071284;28;20201;-76
2021/04/22 11:48:35;;;;;;;12.48;4.15;;;23.50;61.60;;;;;;5080810;28;20209;-76
2021/04/22 11:51:01;;;;;;;13.85;4.35;;;23.70;64.40;;;;;;5083987;28;20260;-75
2021/04/22 11:53:37;;;;;;;11.98;4.43;;;22.90;64.90;;;;;;5073067;28;20266;-75
2021/04/22 11:56:04;;;;;;;11.77;4.20;;;22.50;63.60;;;;;;5073681;28;20638;-75
2021/04/22 11:58:30;;;;;;;13.57;3.85;;;21.30;67.00;;;;;;5067873;28;20181;-78
2021/04/22 12:01:05;;;;;;;11.82;4.22;;;20.60;68.30;;;;;;5067679;28;20206;-78
2021/04/22 12:03:36;;;;;;;9.75;4.60;;;20.50;68.70;;;;;;5069779;28;20688;-79
2021/04/22 12:06:07;;;;;;;13.35;3.60;;;23.50;66.30;;;;;;5072680;28;20170;-79
2021/04/22 12:08:35;;;;;;;7.45;3.50;;;24.80;62.90;;;;;;5059074;28;20282;-79
2021/04/22 12:11:03;;;;;;;18.23;4.05;;;23.30;62.10;;;;;;5054411;28;20167;-79
2021/04/22 12:13:30;;;;;;;19.00;3.70;;;23.70;63.50;;;;;;5064712;28;20539;-79
2021/04/22 12:16:00;;;;;;;20.45;4.10;;;24.30;63.30;;;;;;5073243;28;20183;-79
2021/04/22 12:18:28;;;;;;;14.10;4.53;;;24.90;61.60;;;;;;5073895;28;20253;-79
2021/04/22 12:21:10;;;;;;;10.50;4.85;;;23.40;62.20;;;;;;5071248;28;20536;-78
2021/04/22 12:23:39;;;;;;;12.63;4.00;;;21.30;65.20;;;;;;5073074;28;20178;-78
2021/04/22 12:26:24;;;;;;;7.47;3.92;;;22.50;65.70;;;;;;5065273;28;20499;-79
2021/04/22 12:29:20;;;;;;;11.85;4.00;;;22.30;64.90;;;;;;5067310;28;20198;-78
2021/04/22 12:32:01;;;;;;;21.63;4.28;;;19.30;72.60;;;;;;5062864;28;20182;-79
2021/04/22 12:34:35;;;;;;;16.73;4.45;;;17.30;74.50;;;;;;5053514;28;20174;-79
2021/04/22 12:37:02;;;;;;;10.50;4.25;;;16.70;76.20;;;;;;5054623;28;20204;-79
2021/04/22 12:40:04;;;;;;;15.30;3.92;;;16.00;76.50;;;;;;5052876;28;20179;-78
2021/04/22 12:42:32;;;;;;;8.20;4.07;;;16.00;78.60;;;;;;5068294;28;20643;-79
2021/04/22 12:44:57;;;;;;;21.77;4.32;;;16.20;78.30;;;;;;5073710;28;20174;-79
2021/04/22 12:47:53;;;;;;;8.60;4.15;;;16.50;80.40;;;;;;5072608;28;20195;-77